Time;durP1;ratioP1;P1;durP2;ratioP2;P2;SDS_P1;SDS_P2;PMS_P1;PMS_P2;Temp;Humidity;BMP_temperature;BMP_pressure;BME280_temperature;BME280_humidity;BME280_pressure;Samples;Min_cycle;Max_cycle;Signal;HPM_P1;HPM_P2
2022/11/24 00:02:18;;;;;;;2.67;1.90;;;;;;;7.96;91.66;94854.56;5110170;28;20198;-81
2022/11/24 00:04:44;;;;;;;3.77;2.00;;;;;;;8.02;92.02;94850.50;5091797;28;20192;-80
2022/11/24 00:07:11;;;;;;;3.90;1.70;;;;;;;8.07;90.89;94859.25;5105561;28;20191;-81
2022/11/24 00:09:39;;;;;;;2.47;1.97;;;;;;;8.10;91.19;94868.34;5103678;28;20308;-81
2022/11/24 00:12:05;;;;;;;3.00;1.80;;;;;;;8.03;90.76;94864.91;5091395;28;20249;-80
2022/11/24 00:14:32;;;;;;;3.87;1.63;;;;;;;7.96;90.77;94875.06;5110348;28;20204;-80
2022/11/24 00:16:58;;;;;;;3.57;1.97;;;;;;;7.90;91.53;94863.75;5093294;28;20191;-80
2022/11/24 00:19:25;;;;;;;4.00;1.90;;;;;;;7.93;91.00;94863.41;5091152;28;20220;-81
2022/11/24 00:21:51;;;;;;;2.60;1.87;;;;;;;7.92;90.70;94854.13;5100953;28;20203;-81
2022/11/24 00:24:17;;;;;;;5.67;1.70;;;;;;;7.91;90.20;94865.34;5095669;28;20662;-80
2022/11/24 00:26:45;;;;;;;2.83;1.60;;;;;;;7.98;89.98;94870.56;5111045;28;20195;-80
2022/11/24 00:29:12;;;;;;;3.87;1.80;;;;;;;8.04;89.86;94876.75;5107128;28;20191;-80
2022/11/24 00:31:40;;;;;;;2.87;1.73;;;;;;;8.02;89.47;94878.69;5102613;28;20215;-81
2022/11/24 00:34:10;;;;;;;3.60;1.63;;;;;;;8.09;89.46;94879.56;5104998;28;20199;-81
2022/11/24 00:36:37;;;;;;;5.20;1.70;;;;;;;8.04;89.51;94890.38;5092455;28;20594;-81
2022/11/24 00:39:05;;;;;;;3.70;1.60;;;;;;;8.02;89.23;94891.53;5108141;28;20196;-79
2022/11/24 00:41:32;;;;;;;2.90;1.47;;;;;;;8.06;88.74;94895.31;5104030;28;20279;-81
2022/11/24 00:44:00;;;;;;;4.73;1.30;;;;;;;8.00;88.33;94911.41;5099261;28;20197;-80
2022/11/24 00:46:27;;;;;;;4.13;1.87;;;;;;;8.03;88.67;94908.50;5091100;28;20204;-81
2022/11/24 00:48:55;;;;;;;3.00;1.57;;;;;;;7.95;88.94;94897.34;5092545;28;20235;-79
2022/11/24 00:51:25;;;;;;;3.70;1.60;;;;;;;8.04;88.83;94910.09;5092835;28;20204;-80
2022/11/24 00:53:52;;;;;;;5.00;1.73;;;;;;;8.08;88.38;94906.97;5090074;28;20192;-80
2022/11/24 00:56:18;;;;;;;5.37;1.87;;;;;;;8.12;88.30;94912.53;5100802;28;20191;-80
2022/11/24 00:58:45;;;;;;;2.97;1.90;;;;;;;8.09;87.68;94915.44;5106401;28;20587;-81
2022/11/24 01:01:14;;;;;;;5.57;1.67;;;;;;;8.06;87.56;94926.88;5090288;28;20212;-80
2022/11/24 01:03:41;;;;;;;2.10;1.50;;;;;;;8.02;88.07;94938.47;5107587;28;20191;-81
2022/11/24 01:06:11;;;;;;;7.17;2.23;;;;;;;8.06;88.55;94936.34;5092089;28;20284;-79
2022/11/24 01:08:40;;;;;;;4.60;1.70;;;;;;;8.05;88.48;94939.88;5104657;28;20196;-80
2022/11/24 01:11:08;;;;;;;2.93;1.70;;;;;;;8.01;88.40;94943.75;5106695;28;20211;-79
2022/11/24 01:13:35;;;;;;;3.83;1.40;;;;;;;7.97;88.08;94951.78;5109787;28;20221;-80
2022/11/24 01:16:02;;;;;;;3.13;1.60;;;;;;;8.03;88.30;94952.06;5099102;28;20188;-81
2022/11/24 01:18:30;;;;;;;3.20;1.60;;;;;;;8.05;87.92;94955.25;5096454;28;20191;-80
2022/11/24 01:20:56;;;;;;;3.63;1.50;;;;;;;8.03;88.12;94952.88;5094897;28;20226;-80
2022/11/24 01:23:23;;;;;;;4.73;1.80;;;;;;;8.01;87.99;94961.69;5089898;28;20193;-81
2022/11/24 01:25:49;;;;;;;3.30;1.50;;;;;;;7.95;88.09;94961.44;5107227;28;20195;-81
2022/11/24 01:28:16;;;;;;;3.60;1.83;;;;;;;8.00;87.47;94978.06;5102904;28;20207;-80
2022/11/24 01:30:42;;;;;;;3.57;1.63;;;;;;;7.96;88.09;94970.72;5103058;28;20223;-81
2022/11/24 01:33:09;;;;;;;4.07;1.70;;;;;;;7.95;87.99;94970.88;5106690;28;20219;-79
2022/11/24 01:35:36;;;;;;;4.40;1.70;;;;;;;8.00;88.13;94978.06;5090525;28;20212;-81
2022/11/24 01:38:03;;;;;;;3.93;1.87;;;;;;;7.99;87.47;94977.25;5106049;28;20191;-80
2022/11/24 01:40:29;;;;;;;2.70;1.50;;;;;;;8.00;87.30;94980.63;5101915;28;20231;-81
2022/11/24 01:42:56;;;;;;;4.30;1.37;;;;;;;7.98;87.58;94984.16;5092739;28;20193;-81
2022/11/24 01:45:35;;;;;;;2.33;1.60;;;;;;;8.03;86.74;94988.75;5110030;28;20191;-81
2022/11/24 01:48:05;;;;;;;3.77;1.40;;;;;;;8.01;86.70;94995.03;5095899;28;20198;-81
2022/11/24 01:50:33;;;;;;;3.03;1.27;;;;;;;8.10;86.08;94996.53;5092587;28;20219;-80
2022/11/24 01:53:01;;;;;;;3.10;1.30;;;;;;;8.03;86.14;95001.56;5105199;28;20219;-80
2022/11/24 01:55:34;;;;;;;5.07;1.30;;;;;;;7.96;86.23;95001.47;5090593;28;20199;-81
2022/11/24 01:58:05;;;;;;;3.63;1.30;;;;;;;7.96;86.68;95014.28;5089530;28;20199;-81
2022/11/24 02:00:33;;;;;;;4.70;1.43;;;;;;;7.98;86.78;95011.53;5103056;28;20219;-80
2022/11/24 02:03:00;;;;;;;4.37;1.40;;;;;;;8.02;85.96;95014.56;5103180;28;20194;-81
2022/11/24 02:05:30;;;;;;;3.50;1.60;;;;;;;7.96;86.41;95027.09;5090210;28;20192;-80
2022/11/24 02:08:01;;;;;;;2.90;1.40;;;;;;;7.94;86.40;95023.13;5112762;28;20188;-80
2022/11/24 02:10:28;;;;;;;4.43;1.63;;;;;;;7.95;86.16;95029.84;5096092;28;20735;-80
2022/11/24 02:12:57;;;;;;;2.37;1.20;;;;;;;8.03;86.09;95040.03;5097764;28;20860;-81
2022/11/24 02:15:24;;;;;;;2.70;1.40;;;;;;;7.94;86.06;95030.81;5082714;28;20571;-81
2022/11/24 02:17:50;;;;;;;2.23;1.20;;;;;;;8.00;86.45;95037.81;5109083;28;20226;-81
2022/11/24 02:20:18;;;;;;;2.97;1.20;;;;;;;8.01;85.77;95038.59;5091098;28;20220;-79
2022/11/24 02:22:51;;;;;;;3.00;1.00;;;;;;;7.98;86.07;95047.44;5099086;28;20202;-80
2022/11/24 02:25:31;;;;;;;1.50;1.10;;;;;;;7.96;86.20;95045.03;5093078;28;20597;-80
2022/11/24 02:28:03;;;;;;;2.47;1.07;;;;;;;7.99;86.04;95049.03;5109829;28;20199;-80
2022/11/24 02:30:29;;;;;;;1.80;1.00;;;;;;;8.00;85.75;95050.63;5090493;28;20292;-81
2022/11/24 02:32:56;;;;;;;3.00;1.27;;;;;;;7.99;85.81;95061.84;5102248;28;20207;-81
2022/11/24 02:35:23;;;;;;;4.07;1.17;;;;;;;8.00;85.62;95058.31;5101194;28;20542;-80
2022/11/24 02:37:49;;;;;;;2.47;1.00;;;;;;;7.94;85.98;95059.00;5109844;28;20192;-81
2022/11/24 02:40:23;;;;;;;3.23;1.10;;;;;;;7.91;85.73;95054.22;5091861;28;20225;-80
2022/11/24 02:42:53;;;;;;;1.53;1.20;;;;;;;7.95;85.95;95058.81;5094255;28;20193;-81
2022/11/24 02:45:22;;;;;;;1.63;0.90;;;;;;;7.98;85.77;95060.25;5088219;28;20219;-81
2022/11/24 02:47:48;;;;;;;1.27;1.10;;;;;;;8.04;85.13;95057.00;5107567;28;20195;-81
2022/11/24 02:50:15;;;;;;;1.20;0.90;;;;;;;8.04;85.50;95063.91;5090760;28;20234;-81
2022/11/24 02:52:42;;;;;;;4.13;1.20;;;;;;;7.97;85.76;95059.44;5104996;28;20231;-81
2022/11/24 02:55:09;;;;;;;1.67;1.00;;;;;;;8.01;85.51;95075.28;5101057;28;20196;-80
2022/11/24 02:57:35;;;;;;;1.23;0.80;;;;;;;8.04;85.34;95069.81;5100718;28;20192;-81
2022/11/24 03:00:01;;;;;;;3.17;1.07;;;;;;;8.01;86.18;95070.16;5092805;28;20239;-80
2022/11/24 03:02:29;;;;;;;1.80;1.00;;;;;;;7.98;85.82;95071.28;5094164;28;20197;-80
2022/11/24 03:04:56;;;;;;;0.93;0.80;;;;;;;7.98;85.93;95076.44;5101812;28;20204;-79
2022/11/24 03:07:22;;;;;;;1.90;0.97;;;;;;;8.01;86.18;95077.06;5086406;28;20262;-81
2022/11/24 03:09:49;;;;;;;2.10;1.00;;;;;;;7.93;86.23;95076.13;5108685;28;20224;-82
2022/11/24 03:12:15;;;;;;;1.20;0.90;;;;;;;7.98;86.19;95091.81;5108159;28;20215;-81
2022/11/24 03:14:42;;;;;;;1.40;0.90;;;;;;;8.07;85.80;95082.28;5104228;28;20566;-81
2022/11/24 03:17:08;;;;;;;3.00;1.13;;;;;;;8.04;85.79;95098.03;5100027;28;20211;-79
2022/11/24 03:19:36;;;;;;;2.47;0.90;;;;;;;8.06;85.73;95090.16;5092226;28;20216;-81
2022/11/24 03:22:03;;;;;;;1.07;0.90;;;;;;;8.11;85.62;95101.47;5108875;28;20191;-79
2022/11/24 03:24:30;;;;;;;1.47;0.90;;;;;;;8.20;85.32;95099.66;5103638;28;20656;-79
2022/11/24 03:26:56;;;;;;;1.30;1.13;;;;;;;8.24;85.02;95106.81;5095330;28;20211;-82
2022/11/24 03:29:23;;;;;;;1.60;1.50;;;;;;;8.17;85.50;95107.69;5098840;28;20219;-81
2022/11/24 03:31:49;;;;;;;1.27;1.03;;;;;;;8.15;85.41;95110.41;5101661;28;20196;-80
2022/11/24 03:34:16;;;;;;;1.83;0.80;;;;;;;8.19;85.43;95109.09;5101511;28;20214;-81
2022/11/24 03:36:43;;;;;;;1.53;0.90;;;;;;;8.06;86.40;95116.59;5082216;28;20197;-81
2022/11/24 03:39:10;;;;;;;1.33;0.80;;;;;;;8.09;86.09;95118.78;5091828;28;20192;-81
2022/11/24 03:41:36;;;;;;;0.80;0.77;;;;;;;8.15;86.04;95109.63;5093767;28;20200;-81
2022/11/24 03:44:03;;;;;;;1.23;0.90;;;;;;;8.15;86.16;95123.22;5101613;28;20284;-81
2022/11/24 03:46:29;;;;;;;1.67;0.90;;;;;;;8.17;85.63;95118.72;5103351;27;20207;-80
2022/11/24 03:48:56;;;;;;;1.93;1.20;;;;;;;8.09;86.02;95126.47;5091902;28;20204;-81
2022/11/24 03:51:22;;;;;;;1.27;0.90;;;;;;;8.09;86.63;95118.00;5108496;28;20214;-81
2022/11/24 03:53:50;;;;;;;1.27;0.90;;;;;;;8.15;86.51;95119.88;5102277;28;20223;-81
2022/11/24 03:56:17;;;;;;;1.90;1.00;;;;;;;8.14;86.20;95115.72;5095195;28;20674;-80
2022/11/24 03:58:43;;;;;;;2.37;0.90;;;;;;;8.16;85.93;95124.03;5111708;28;20202;-81
2022/11/24 04:01:10;;;;;;;1.70;1.00;;;;;;;8.14;86.23;95131.91;5094931;28;20223;-80
2022/11/24 04:03:36;;;;;;;1.83;0.80;;;;;;;8.17;86.45;95133.31;5092901;28;20192;-80
2022/11/24 04:06:03;;;;;;;2.43;1.07;;;;;;;8.17;86.38;95141.81;5093115;28;20574;-81
2022/11/24 04:08:29;;;;;;;2.60;0.80;;;;;;;8.10;87.00;95128.06;5097259;28;20628;-81
2022/11/24 04:10:57;;;;;;;2.20;1.20;;;;;;;8.14;86.71;95134.47;5111468;28;20222;-81
2022/11/24 04:13:24;;;;;;;2.97;0.90;;;;;;;8.09;87.47;95131.59;5088405;28;20224;-80
2022/11/24 04:15:51;;;;;;;1.57;1.00;;;;;;;8.10;87.12;95128.06;5100490;28;20643;-81
2022/11/24 04:18:18;;;;;;;2.77;1.00;;;;;;;8.11;87.36;95136.56;5097848;28;20202;-81
2022/11/24 04:20:45;;;;;;;1.83;0.80;;;;;;;8.16;86.70;95135.09;5097885;28;20223;-80
2022/11/24 04:23:11;;;;;;;2.50;1.13;;;;;;;8.12;86.66;95133.81;5111062;28;20187;-81
2022/11/24 04:25:40;;;;;;;1.33;0.80;;;;;;;8.18;86.40;95142.59;5098573;28;20200;-80
2022/11/24 04:28:08;;;;;;;3.57;1.20;;;;;;;8.16;86.06;95145.34;5098380;28;20198;-81
2022/11/24 04:30:35;;;;;;;1.93;0.90;;;;;;;8.19;85.86;95145.00;5110524;28;20215;-81
2022/11/24 04:33:01;;;;;;;2.07;1.03;;;;;;;8.18;85.98;95150.31;5091594;28;20563;-79
2022/11/24 04:35:28;;;;;;;1.73;1.00;;;;;;;8.20;85.73;95159.41;5094715;28;20204;-81
2022/11/24 04:37:54;;;;;;;2.07;1.07;;;;;;;8.19;85.59;95159.59;5106381;28;20565;-80
2022/11/24 04:40:21;;;;;;;2.27;1.10;;;;;;;8.21;85.74;95162.78;5110655;28;20220;-81
2022/11/24 04:42:53;;;;;;;2.73;1.03;;;;;;;8.24;85.33;95157.31;5091600;28;20188;-80
2022/11/24 04:45:21;;;;;;;3.17;1.10;;;;;;;8.24;85.17;95159.88;5106258;28;20296;-79
2022/11/24 04:47:48;;;;;;;1.77;1.00;;;;;;;8.30;85.39;95166.88;5096533;28;20200;-81
2022/11/24 04:50:14;;;;;;;2.57;1.10;;;;;;;8.31;85.37;95166.69;5100209;28;20235;-81
2022/11/24 04:52:42;;;;;;;3.53;1.10;;;;;;;8.24;85.67;95167.56;5094521;28;20195;-81
2022/11/24 04:55:09;;;;;;;1.60;1.10;;;;;;;8.20;86.24;95168.88;5110704;28;20548;-81
2022/11/24 04:57:35;;;;;;;4.90;1.47;;;;;;;8.25;86.31;95171.72;5092119;28;20204;-81
2022/11/24 05:00:02;;;;;;;0.97;0.83;;;;;;;8.29;85.94;95170.41;5101311;28;20216;-80
2022/11/24 05:02:30;;;;;;;2.30;1.20;;;;;;;8.31;86.26;95179.53;5106689;28;20282;-81
2022/11/24 05:04:57;;;;;;;3.73;1.30;;;;;;;8.30;86.36;95177.91;5090733;28;20569;-81
2022/11/24 05:07:23;;;;;;;3.80;1.47;;;;;;;8.36;86.52;95185.94;5094676;28;20602;-80
2022/11/24 05:12:34;;;;;;;4.63;1.43;;;;;;;8.28;86.88;95190.13;5089894;28;20199;-80
2022/11/24 05:15:02;;;;;;;4.27;1.60;;;;;;;8.27;87.18;95192.88;5093102;28;20581;-81
2022/11/24 05:17:29;;;;;;;2.90;1.20;;;;;;;8.21;87.21;95206.38;5093817;28;20207;-79
2022/11/24 05:19:57;;;;;;;4.20;1.50;;;;;;;8.23;87.90;95201.88;5100660;28;20208;-81
2022/11/24 05:22:24;;;;;;;3.47;1.50;;;;;;;8.28;87.46;95199.56;5094109;28;20196;-81
2022/11/24 05:24:50;;;;;;;3.47;1.40;;;;;;;8.21;88.07;95208.94;5092105;28;20210;-79
2022/11/24 05:27:17;;;;;;;2.37;1.53;;;;;;;8.21;88.39;95207.19;5105686;28;20916;-79
2022/11/24 05:29:43;;;;;;;2.97;1.37;;;;;;;8.11;88.92;95209.16;5109684;28;20215;-81
2022/11/24 05:32:10;;;;;;;2.80;1.30;;;;;;;8.09;89.59;95216.22;5093008;28;20203;-80
2022/11/24 05:34:36;;;;;;;4.93;1.53;;;;;;;8.05;89.54;95216.75;5099511;28;20406;-81
2022/11/24 05:37:04;;;;;;;6.50;1.60;;;;;;;8.11;89.54;95213.47;5095011;28;20651;-81
2022/11/24 05:39:31;;;;;;;4.73;1.57;;;;;;;8.14;89.32;95224.19;5094224;28;20227;-81
2022/11/24 05:41:58;;;;;;;3.07;1.60;;;;;;;8.12;89.22;95223.56;5107728;28;20215;-81
2022/11/24 05:44:24;;;;;;;3.47;1.70;;;;;;;8.11;89.49;95231.44;5102299;28;20192;-81
2022/11/24 05:46:51;;;;;;;3.53;1.60;;;;;;;8.17;89.17;95230.75;5102936;28;20202;-81
2022/11/24 05:49:17;;;;;;;2.77;1.53;;;;;;;8.27;88.69;95232.13;5096580;28;20226;-80
2022/11/24 05:51:44;;;;;;;3.27;1.50;;;;;;;8.19;88.99;95228.81;5090221;28;20582;-81
2022/11/24 05:54:12;;;;;;;4.47;1.60;;;;;;;8.18;88.43;95228.03;5089468;28;20227;-82
2022/11/24 05:56:38;;;;;;;5.17;1.80;;;;;;;8.21;88.04;95234.59;5089921;28;20218;-81
2022/11/24 05:59:05;;;;;;;6.23;1.80;;;;;;;8.15;88.69;95242.94;5090960;28;20211;-82
2022/11/24 06:01:31;;;;;;;5.57;1.87;;;;;;;8.15;88.44;95241.19;5090342;28;20195;-81
2022/11/24 06:03:57;;;;;;;3.07;1.43;;;;;;;8.19;88.09;95245.00;5090982;28;20219;-81
2022/11/24 06:06:24;;;;;;;5.40;1.40;;;;;;;8.21;87.56;95255.91;5073373;28;20200;-81
2022/11/24 06:08:51;;;;;;;4.10;1.70;;;;;;;8.23;87.28;95253.97;5082179;28;20208;-81
2022/11/24 06:11:19;;;;;;;6.27;2.30;;;;;;;8.31;86.87;95256.47;5090476;28;20227;-82
2022/11/24 06:13:47;;;;;;;5.00;1.80;;;;;;;8.39;86.18;95257.41;5089576;28;20695;-82
2022/11/24 06:16:14;;;;;;;3.80;1.80;;;;;;;8.27;86.32;95257.75;5090671;28;20203;-81
2022/11/24 06:18:41;;;;;;;8.27;2.13;;;;;;;8.31;86.51;95265.94;5089827;28;20211;-81
2022/11/24 06:21:07;;;;;;;4.67;1.50;;;;;;;8.31;86.20;95266.72;5090041;28;20306;-80
2022/11/24 06:23:34;;;;;;;8.27;1.73;;;;;;;8.31;85.71;95269.28;5090347;28;20203;-82
2022/11/24 06:26:01;;;;;;;4.90;1.77;;;;;;;8.34;85.67;95278.44;5090047;28;20227;-80
2022/11/24 06:28:29;;;;;;;3.43;1.47;;;;;;;8.37;85.93;95282.44;5089962;28;20216;-80
2022/11/24 06:30:55;;;;;;;6.13;1.83;;;;;;;8.36;85.58;95279.06;5090001;28;20231;-79
2022/11/24 06:33:22;;;;;;;5.37;1.80;;;;;;;8.32;85.35;95281.19;5094220;28;20311;-79
2022/11/24 06:35:48;;;;;;;6.33;1.87;;;;;;;8.38;85.37;95281.47;5094467;28;20203;-82
2022/11/24 06:38:16;;;;;;;3.57;1.60;;;;;;;8.42;84.63;95280.97;5094048;28;20206;-81
2022/11/24 06:40:43;;;;;;;6.67;1.60;;;;;;;8.47;84.24;95280.44;5093899;28;20224;-80
2022/11/24 06:43:09;;;;;;;5.50;1.73;;;;;;;8.41;84.06;95287.06;5094268;28;20705;-81
2022/11/24 06:45:37;;;;;;;5.23;1.93;;;;;;;8.39;83.94;95286.44;5092566;28;20570;-81
2022/11/24 06:48:04;;;;;;;10.37;1.90;;;;;;;8.43;83.81;95294.59;5073584;28;20331;-81
2022/11/24 06:50:30;;;;;;;6.80;2.27;;;;;;;8.40;83.57;95302.63;5073478;28;20263;-82
2022/11/24 06:52:56;;;;;;;8.60;2.40;;;;;;;8.46;83.77;95297.63;5072785;28;20212;-81
2022/11/24 06:55:23;;;;;;;5.47;1.93;;;;;;;8.43;83.16;95300.53;5073145;28;20205;-81
2022/11/24 06:57:49;;;;;;;5.80;2.00;;;;;;;8.44;82.88;95291.88;5073179;28;20291;-82
2022/11/24 07:00:17;;;;;;;5.27;1.73;;;;;;;8.44;83.12;95301.31;5073222;28;20232;-82
2022/11/24 07:02:45;;;;;;;5.37;1.80;;;;;;;8.44;82.56;95303.88;5091300;28;20206;-81
2022/11/24 07:05:11;;;;;;;5.03;1.60;;;;;;;8.44;82.29;95303.88;5093613;28;20197;-81
2022/11/24 07:07:38;;;;;;;5.10;1.60;;;;;;;8.46;82.25;95302.75;5093395;28;20266;-82
2022/11/24 07:10:05;;;;;;;4.97;1.90;;;;;;;8.49;82.54;95299.03;5093347;28;20224;-80
2022/11/24 07:12:34;;;;;;;7.80;1.93;;;;;;;8.49;82.44;95306.72;5092853;28;20582;-81
2022/11/24 07:15:00;;;;;;;3.40;1.40;;;;;;;8.51;81.94;95305.59;5093687;28;20394;-81
2022/11/24 07:17:27;;;;;;;4.70;1.67;;;;;;;8.53;81.96;95308.78;5093525;28;20206;-80
2022/11/24 07:19:55;;;;;;;6.93;1.93;;;;;;;8.46;82.06;95310.44;5086394;28;20292;-81
2022/11/24 07:22:21;;;;;;;6.03;1.70;;;;;;;8.46;82.33;95305.31;5073459;28;20207;-81
2022/11/24 07:24:47;;;;;;;7.90;1.80;;;;;;;8.50;81.91;95306.56;5087552;28;20227;-81
2022/11/24 07:27:14;;;;;;;4.97;2.00;;;;;;;8.55;81.86;95301.72;5092935;28;20192;-81
2022/11/24 07:29:40;;;;;;;6.53;1.97;;;;;;;8.59;81.46;95302.97;5093038;28;20227;-81
2022/11/24 07:32:07;;;;;;;5.30;1.70;;;;;;;8.76;81.28;95311.34;5092453;28;20196;-82
2022/11/24 07:34:33;;;;;;;4.57;1.90;;;;;;;8.81;80.73;95316.78;5093324;28;20224;-80
2022/11/24 07:37:01;;;;;;;8.13;2.00;;;;;;;8.94;80.54;95326.47;5093586;28;20211;-81
2022/11/24 07:39:27;;;;;;;5.60;2.10;;;;;;;9.05;79.84;95318.34;5092517;28;20224;-80
2022/11/24 07:41:54;;;;;;;5.00;2.10;;;;;;;9.13;79.05;95323.41;5090593;28;20204;-81
2022/11/24 07:44:20;;;;;;;8.50;2.40;;;;;;;9.20;78.32;95323.53;5072787;28;20208;-81
2022/11/24 07:46:48;;;;;;;4.93;1.90;;;;;;;9.30;78.18;95321.50;5072186;28;20211;-79
2022/11/24 07:49:15;;;;;;;5.57;2.17;;;;;;;9.29;77.67;95327.59;5072035;28;20569;-80
2022/11/24 07:51:41;;;;;;;5.70;2.20;;;;;;;9.29;77.33;95336.13;5072332;28;20212;-82
2022/11/24 07:54:09;;;;;;;8.57;2.07;;;;;;;9.35;77.27;95327.72;5071950;28;20231;-81
2022/11/24 07:56:36;;;;;;;4.97;1.80;;;;;;;9.44;76.55;95322.47;5072846;28;20571;-82
2022/11/24 07:59:02;;;;;;;7.70;2.20;;;;;;;9.42;75.97;95322.69;5071887;28;20211;-80
2022/11/24 08:01:29;;;;;;;4.63;2.13;;;;;;;9.45;75.73;95316.38;5072894;28;20221;-81
2022/11/24 08:03:55;;;;;;;5.07;1.90;;;;;;;9.53;75.61;95319.66;5071785;28;20197;-82
2022/11/24 08:06:22;;;;;;;5.97;2.23;;;;;;;9.55;74.23;95309.22;5072302;28;20197;-81
2022/11/24 08:08:50;;;;;;;4.57;2.03;;;;;;;9.60;73.79;95302.59;5071305;28;20819;-82
2022/11/24 08:11:18;;;;;;;4.87;1.90;;;;;;;9.56;73.07;95297.97;5071545;28;20220;-81
2022/11/24 08:13:45;;;;;;;5.07;1.80;;;;;;;9.39;73.65;95305.03;5070854;28;20225;-80
2022/11/24 08:16:13;;;;;;;4.70;1.80;;;;;;;9.51;73.45;95302.81;5071801;28;20205;-81
2022/11/24 08:18:40;;;;;;;5.83;1.70;;;;;;;9.57;72.85;95300.34;5071544;28;20209;-81
2022/11/24 08:21:08;;;;;;;8.27;1.80;;;;;;;9.74;71.72;95308.69;5086811;28;20220;-81
2022/11/24 08:23:34;;;;;;;6.73;1.60;;;;;;;9.89;71.07;95304.31;5091810;28;20204;-80
2022/11/24 08:26:04;;;;;;;4.73;1.50;;;;;;;10.09;70.65;95308.91;5091883;28;20204;-81
2022/11/24 08:28:32;;;;;;;3.60;1.57;;;;;;;9.96;69.67;95309.56;5091047;28;20695;-81
2022/11/24 08:31:03;;;;;;;4.07;1.70;;;;;;;9.89;70.83;95309.47;5091042;28;20232;-80
2022/11/24 08:33:30;;;;;;;4.30;1.90;;;;;;;9.81;70.94;95317.28;5091891;28;20200;-81
2022/11/24 08:35:56;;;;;;;5.47;1.80;;;;;;;9.74;70.39;95316.41;5091337;28;20200;-81
2022/11/24 08:38:23;;;;;;;6.70;1.97;;;;;;;9.78;70.47;95314.28;5091011;28;20207;-81
2022/11/24 08:40:49;;;;;;;4.17;1.30;;;;;;;9.76;69.83;95319.59;5091169;28;20220;-80
2022/11/24 08:43:16;;;;;;;5.07;1.53;;;;;;;9.52;69.96;95318.06;5091654;28;20200;-80
2022/11/24 08:45:44;;;;;;;5.73;1.30;;;;;;;9.44;70.43;95320.72;5090994;28;20202;-81
2022/11/24 08:48:11;;;;;;;5.93;1.87;;;;;;;9.38;70.45;95316.28;5091437;28;20579;-81
2022/11/24 08:50:37;;;;;;;4.13;1.60;;;;;;;9.44;70.51;95319.91;5092694;28;20224;-79
2022/11/24 08:53:04;;;;;;;5.43;1.53;;;;;;;9.62;70.33;95310.13;5092720;28;20204;-81
2022/11/24 08:55:30;;;;;;;4.07;1.60;;;;;;;9.82;69.75;95300.06;5091209;28;20224;-79
2022/11/24 08:57:57;;;;;;;4.53;1.70;;;;;;;10.20;68.99;95306.69;5090846;28;20214;-81
2022/11/24 09:00:28;;;;;;;3.50;1.50;;;;;;;10.43;67.90;95309.13;5091234;28;20220;-80
2022/11/24 09:02:57;;;;;;;2.70;1.53;;;;;;;10.43;67.57;95319.44;5071285;28;20636;-79
2022/11/24 09:05:24;;;;;;;3.00;1.37;;;;;;;10.19;67.56;95307.69;5071141;28;20303;-81
2022/11/24 09:07:51;;;;;;;4.30;1.63;;;;;;;10.00;67.77;95303.88;5070797;28;20196;-80
2022/11/24 09:10:18;;;;;;;5.20;1.63;;;;;;;9.94;68.00;95301.22;5071113;28;20315;-81
2022/11/24 09:12:45;;;;;;;3.80;1.37;;;;;;;9.76;68.10;95308.50;5070700;28;20208;-81
2022/11/24 09:15:12;;;;;;;6.47;1.63;;;;;;;9.64;68.53;95308.13;5070704;28;20251;-81
2022/11/24 09:17:38;;;;;;;4.07;1.77;;;;;;;9.52;69.06;95304.44;5088692;28;20196;-80
2022/11/24 09:20:06;;;;;;;4.43;1.50;;;;;;;9.54;69.39;95310.19;5090298;28;20216;-81
2022/11/24 09:22:33;;;;;;;6.60;1.57;;;;;;;9.56;69.15;95316.75;5090220;28;20200;-81
2022/11/24 09:24:59;;;;;;;11.03;2.07;;;;;;;10.04;68.17;95315.38;5090808;28;20206;-80
2022/11/24 09:27:27;;;;;;;5.50;1.80;;;;;;;10.25;66.82;95314.69;5090706;28;20212;-80
2022/11/24 09:29:53;;;;;;;5.40;1.70;;;;;;;10.20;66.77;95316.97;5150225;22;20619;-79
2022/11/24 09:32:23;;;;;;;3.20;1.43;;;;;;;10.17;66.91;95312.19;5050449;28;20201;-80
2022/11/24 09:34:50;;;;;;;4.70;1.90;;;;;;;10.09;67.06;95314.06;5045339;28;20218;-81
2022/11/24 09:37:18;;;;;;;5.17;1.30;;;;;;;10.07;67.19;95316.00;5030176;28;20206;-81
2022/11/24 09:39:44;;;;;;;3.43;1.50;;;;;;;10.07;67.54;95313.44;5025449;28;20223;-81
2022/11/24 09:42:18;;;;;;;2.67;1.53;;;;;;;9.98;67.43;95317.91;5011243;28;20288;-81
2022/11/24 09:45:13;;;;;;;4.40;1.83;;;;;;;9.94;67.41;95316.66;5010931;28;20191;-80
2022/11/24 09:47:53;;;;;;;5.17;1.57;;;;;;;9.96;67.77;95320.66;5009797;28;20230;-80
2022/11/24 09:50:22;;;;;;;5.47;1.97;;;;;;;9.91;67.77;95314.44;5010603;28;20598;-81
2022/11/24 09:52:53;;;;;;;4.10;1.20;;;;;;;9.90;67.33;95317.97;5010111;28;20214;-80
2022/11/24 09:55:31;;;;;;;4.00;1.53;;;;;;;9.97;66.85;95317.09;5010579;28;20293;-81
2022/11/24 09:58:09;;;;;;;4.80;1.87;;;;;;;10.41;65.82;95329.09;5010079;28;20191;-81
2022/11/24 10:00:37;;;;;;;4.93;1.60;;;;;;;10.57;64.47;95328.09;5011300;28;20586;-81
2022/11/24 10:03:04;;;;;;;7.50;2.00;;;;;;;10.69;64.70;95329.22;5030201;28;20213;-81
2022/11/24 10:05:34;;;;;;;3.37;1.33;;;;;;;10.66;64.25;95334.72;5031004;28;20194;-80
2022/11/24 10:08:16;;;;;;;4.03;1.50;;;;;;;10.52;64.13;95330.41;5033996;28;20190;-81
2022/11/24 10:10:51;;;;;;;6.27;1.60;;;;;;;10.30;65.16;95340.66;5034425;28;20253;-80
2022/11/24 10:13:35;;;;;;;4.67;1.40;;;;;;;10.09;65.50;95344.94;5033475;28;20201;-81
2022/11/24 10:16:12;;;;;;;3.87;1.20;;;;;;;9.92;66.71;95347.69;5034141;28;20575;-80
2022/11/24 10:18:49;;;;;;;4.27;1.20;;;;;;;9.86;67.88;95356.09;5034101;28;20186;-80
2022/11/24 10:21:32;;;;;;;1.57;1.03;;;;;;;9.73;69.26;95368.78;5033884;28;20225;-79
2022/11/24 10:24:19;;;;;;;5.80;1.37;;;;;;;9.60;71.47;95394.31;5034333;28;20198;-81
2022/11/24 10:26:51;;;;;;;3.80;1.20;;;;;;;9.34;71.81;95376.69;5033971;28;20193;-80
2022/11/24 10:29:24;;;;;;;2.07;1.07;;;;;;;9.13;73.12;95381.69;5033166;28;20677;-80
2022/11/24 10:31:55;;;;;;;2.57;1.00;;;;;;;9.11;74.64;95384.44;5033702;28;20198;-81
2022/11/24 10:34:28;;;;;;;3.30;1.20;;;;;;;9.07;76.06;95393.44;5034033;28;20210;-81
2022/11/24 10:37:01;;;;;;;2.23;1.00;;;;;;;8.89;78.03;95398.06;5033565;28;20186;-81
2022/11/24 10:39:36;;;;;;;5.27;1.47;;;;;;;8.85;80.63;95384.75;5033928;28;20221;-80
2022/11/24 10:42:10;;;;;;;3.50;1.20;;;;;;;8.81;82.80;95387.84;5033493;28;20190;-81
2022/11/24 10:44:38;;;;;;;1.63;1.00;;;;;;;8.73;83.45;95400.72;5033700;28;20202;-81
2022/11/24 10:47:17;;;;;;;2.60;1.20;;;;;;;8.76;84.18;95403.75;5034016;28;20209;-81
2022/11/24 10:49:52;;;;;;;3.83;1.50;;;;;;;8.71;84.26;95392.41;5033449;28;20225;-80
2022/11/24 10:52:19;;;;;;;4.03;1.27;;;;;;;8.59;85.83;95392.00;5033870;28;20186;-81
2022/11/24 10:54:58;;;;;;;3.57;1.73;;;;;;;8.45;86.20;95395.28;5033837;28;20210;-80
2022/11/24 10:57:33;;;;;;;3.87;1.40;;;;;;;8.47;87.69;95390.75;5033994;28;20620;-79
2022/11/24 11:00:00;;;;;;;2.50;1.20;;;;;;;8.41;88.50;95392.25;5033288;28;20225;-81
2022/11/24 11:02:39;;;;;;;2.30;1.27;;;;;;;8.46;88.29;95391.75;5033201;28;20198;-81
2022/11/24 11:05:40;;;;;;;6.67;1.17;;;;;;;8.42;87.75;95391.28;5034187;28;20186;-81
2022/11/24 11:08:20;;;;;;;2.90;1.30;;;;;;;8.45;88.29;95385.81;5032917;28;20269;-82
2022/11/24 11:10:49;;;;;;;2.43;1.10;;;;;;;8.46;88.55;95400.25;5032768;28;20222;-80
2022/11/24 11:13:24;;;;;;;3.27;1.33;;;;;;;8.41;89.07;95401.72;5012846;28;20759;-81
2022/11/24 11:15:50;;;;;;;3.03;1.27;;;;;;;8.51;88.41;95394.59;5013729;28;20565;-81
2022/11/24 11:18:19;;;;;;;5.67;1.50;;;;;;;8.31;89.69;95392.41;5011710;28;20682;-80
2022/11/24 11:20:51;;;;;;;2.00;1.17;;;;;;;8.34;90.88;95399.00;5026147;28;20244;-81
2022/11/24 11:23:23;;;;;;;3.20;1.20;;;;;;;8.40;90.58;95397.53;5033394;28;20206;-80
2022/11/24 11:25:51;;;;;;;3.20;1.27;;;;;;;8.40;91.38;95392.41;5032666;28;20187;-81
2022/11/24 11:28:27;;;;;;;3.63;1.63;;;;;;;8.40;91.58;95406.03;5032599;28;20689;-81
2022/11/24 11:31:02;;;;;;;3.60;1.40;;;;;;;8.45;92.37;95400.41;5031815;28;20775;-80
2022/11/24 11:33:30;;;;;;;3.17;1.40;;;;;;;8.49;91.07;95407.59;5032874;28;20206;-80
2022/11/24 11:36:00;;;;;;;4.93;1.50;;;;;;;8.48;92.19;95408.53;5032125;28;20232;-81
2022/11/24 11:38:37;;;;;;;3.07;1.20;;;;;;;8.45;92.12;95410.66;5033245;28;20206;-81
2022/11/24 11:41:06;;;;;;;3.00;1.20;;;;;;;8.51;92.76;95415.91;5032626;28;20224;-81
2022/11/24 11:43:35;;;;;;;2.97;1.30;;;;;;;8.59;91.99;95417.66;5032658;28;20202;-82
2022/11/24 11:46:09;;;;;;;5.40;1.80;;;;;;;8.57;92.22;95419.59;5032642;28;20205;-81
2022/11/24 11:48:37;;;;;;;4.53;1.50;;;;;;;8.57;92.09;95410.13;5031866;28;20559;-80
2022/11/24 11:51:21;;;;;;;4.37;1.50;;;;;;;8.60;93.39;95419.25;5032878;28;20229;-82